X  Chiuso Dati meteorologici dell'aviazione (METAR)     LIML Milano Linate Airport
Temperatura
20°C Temperatura
15°C Punto di rugiada
73% Umidità



Vento
5 KM/O
3 MPH
1 M/S
3 KTS



320°
NO
Condizioni attuali

Chiaro Chiaro
Pressione 1012.92 (hPa) - 29.91 (inHg)
Visibilità 6.2 (miglio) - 10 (km)
Aeroporto
Codice-Aeroporto LIML

Posizione: Milano Linate Airport
Distanza: 6 (km)

Metar:
LIML 220250Z 32003KT CAVOK 20/15 Q1013 NOSIG

Ore: 22-05-2022 04:50 CEST